Brookesmith, TX (76827)

6:58 PM CDT on September 03, 2015 (GMT -0500)
TINTOP RANCH | | Change Station
CLOSE
Current Station
Personal Weather Station
Location: Indian Creek, TX
Elevation: 1320 ft
Nearby Weather Stations

Elev 1320 ft 31.48 °N, 98.98 °W | Updated 2 minutes ago

Partly Cloudy
Partly Cloudy
92.0 °F
Feels Like 94 °F
N
3.0
Wind Variable Wind from ESE
Gusts 8.0 mph

Today
High -- | Low -- °F
--% Chance of Precip.
Yesterday
High -- | Low -- °F
Precip. -- in
7:13 AM 7:57 PM
Waning Gibbous, 65% visible
Pressure 29.86 in
Visibility 10.0 miles
Clouds Clear
Heat Index 94 °F
Dew Point 64 °F
Humidity 40%
Rainfall 0.00 in
Snow Depth Not available.
UV 1 out of 12
Pollen 9.30 out of 12
Air Quality Not available.
Flu Activity Not available.
METAR KBWD 032335Z AUTO 10007KT 10SM CLR 32/17 A2986 RMK AO2
Pressure 29.86 in
Visibility 10.0 miles
Clouds Clear
Heat Index 94 °F
Dew Point 64 °F
Humidity 40%
Rainfall 0.00 in
Snow Depth Not available.
UV 1 out of 12
Pollen 9.30 out of 12
Air Quality Not available.
Flu Activity Not available.
METAR KBWD 032335Z AUTO 10007KT 10SM CLR 32/17 A2986 RMK AO2

10-Day Weather Forecast

×

Almanac

Astronomy

Sep. 03, 2015 Rise Set
Actual Time
Civil Twilight
Nautical Twilight
Astronomical Twilight
Moon
Length of Visible Light
Length of Day
Tomorrow will be .
, % of the Moon is Illuminated

Today's Extremes

State Highs State Lows

Community

WunderPhotos

Upload Photos

1,852,063 photos uploaded!

WunderBlogs® & News

Nearby

Air Quality

  Air Quality AQ Index Pollutant
Not available.

Snow Depth

Station Depth Elevation

Earthquake Activity

City Distance Mag. Time & Date
Minimum magnitude displayed is 2.5.

Coastal Water Temperatures

Place Temperature

Stations

Nearby Weather Stations

Station Location Temp. Windchill Dew Point Humidity Wind Precip. Elev Updated Type